Time;durP1;ratioP1;P1;durP2;ratioP2;P2;SDS_P1;SDS_P2;PMS_P1;PMS_P2;Temp;Humidity;BMP_temperature;BMP_pressure;BME280_temperature;BME280_humidity;BME280_pressure;Samples;Min_cycle;Max_cycle;Signal;HPM_P1;HPM_P2
2023/06/14 00:00:42;;;;;;;;;19.43;19.43;;;;;;;;1983789;28;3581455;-85
2023/06/14 00:01:52;;;;;;;;;20.50;20.50;;;;;;;;1962318;28;2842965;-85
2023/06/14 00:03:04;;;;;;;;;21.60;19.60;;;;;;;;1977782;28;3575196;-85
2023/06/14 00:04:16;;;;;;;;;18.80;16.60;;;;;;;;2001460;28;3553453;-87
2023/06/14 00:05:29;;;;;;;;;19.33;19.33;;;;;;;;1981584;28;3571094;-86
2023/06/14 00:06:41;;;;;;;;;18.33;17.00;;;;;;;;1952092;28;3577304;-87
2023/06/14 00:07:53;;;;;;;;;20.20;19.40;;;;;;;;1961128;28;3569454;-86
2023/06/14 00:09:05;;;;;;;;;24.00;19.60;;;;;;;;1969198;28;3578310;-86
2023/06/14 00:10:16;;;;;;;;;22.60;18.60;;;;;;;;1979741;28;3571428;-86
2023/06/14 00:11:30;;;;;;;;;19.20;16.80;;;;;;;;1978584;28;3566895;-86
2023/06/14 00:12:41;;;;;;;;;20.67;19.33;;;;;;;;1968925;28;3557493;-86
2023/06/14 00:13:52;;;;;;;;;22.20;21.40;;;;;;;;1960372;28;2841982;-86
2023/06/14 00:15:05;;;;;;;;;23.00;17.00;;;;;;;;1995896;28;3568932;-86
2023/06/14 00:16:16;;;;;;;;;20.33;17.00;;;;;;;;1957854;28;3577312;-86
2023/06/14 00:17:30;;;;;;;;;15.40;15.40;;;;;;;;1979153;28;3540835;-84
2023/06/14 00:18:41;;;;;;;;;22.00;20.00;;;;;;;;1974843;28;3577331;-84
2023/06/14 00:19:54;;;;;;;;;26.20;22.40;;;;;;;;1963147;28;3574149;-84
2023/06/14 00:21:05;;;;;;;;;21.33;18.67;;;;;;;;1974700;28;3579445;-83
2023/06/14 00:22:16;;;;;;;;;22.40;20.60;;;;;;;;1968699;28;2843010;-83
2023/06/14 00:23:27;;;;;;;;;18.20;17.40;;;;;;;;1990635;28;3571042;-83
2023/06/14 00:24:39;;;;;;;;;22.80;19.80;;;;;;;;2010171;28;3576310;-83
2023/06/14 00:25:51;;;;;;;;;19.33;19.33;;;;;;;;1974963;28;3572114;-83
2023/06/14 00:27:03;;;;;;;;;20.60;19.00;;;;;;;;1985184;28;3570008;-82
2023/06/14 00:28:15;;;;;;;;;21.80;19.40;;;;;;;;1982507;28;3579423;-82
2023/06/14 00:29:27;;;;;;;;;21.20;18.20;;;;;;;;1984080;28;3572092;-82
2023/06/14 00:30:38;;;;;;;;;18.00;18.00;;;;;;;;1969678;28;2840182;-82
2023/06/14 00:31:49;;;;;;;;;24.00;20.67;;;;;;;;1983443;28;3583570;-82
2023/06/14 00:33:01;;;;;;;;;24.20;19.00;;;;;;;;1983898;28;3587689;-82
2023/06/14 00:34:12;;;;;;;;;21.80;20.80;;;;;;;;1969293;28;2840940;-81
2023/06/14 00:35:24;;;;;;;;;20.00;19.00;;;;;;;;2006077;28;3568946;-85
2023/06/14 00:36:36;;;;;;;;;19.00;18.20;;;;;;;;2009289;28;3567937;-80
2023/06/14 00:37:49;;;;;;;;;17.57;15.86;;;;;;;;2006849;28;3553379;-80
2023/06/14 00:39:00;;;;;;;;;20.33;18.00;;;;;;;;1970450;28;3573150;-80
2023/06/14 00:40:12;;;;;;;;;20.40;20.40;;;;;;;;1979403;28;3574613;-80
2023/06/14 00:41:25;;;;;;;;;13.80;13.60;;;;;;;;1987925;28;3526309;-80
2023/06/14 00:42:36;;;;;;;;;19.20;17.40;;;;;;;;1990531;28;3559581;-83
2023/06/14 00:43:50;;;;;;;;;22.14;21.57;;;;;;;;2003148;28;3585951;-83
2023/06/14 00:45:02;;;;;;;;;17.00;16.00;;;;;;;;1958721;28;3556810;-83
2023/06/14 00:46:12;;;;;;;;;22.20;20.20;;;;;;;;1989757;28;2836749;-83
2023/06/14 00:47:26;;;;;;;;;21.00;21.00;;;;;;;;2005650;28;3583564;-83
2023/06/14 00:48:39;;;;;;;;;22.00;18.67;;;;;;;;1959112;28;3562690;-83
2023/06/14 00:49:50;;;;;;;;;20.00;20.00;;;;;;;;1962674;28;2841941;-83
2023/06/14 00:51:03;;;;;;;;;20.00;19.00;;;;;;;;1963489;28;2830422;-83
2023/06/14 00:52:15;;;;;;;;;22.00;20.00;;;;;;;;1957006;28;2848127;-83
2023/06/14 00:53:26;;;;;;;;;18.67;14.00;;;;;;;;1964644;28;2815841;-83
2023/06/14 00:54:36;;;;;;;;;21.00;19.00;;;;;;;;1977907;28;2845021;-83
2023/06/14 00:55:47;;;;;;;;;20.00;18.60;;;;;;;;1959913;28;2845106;-83
2023/06/14 00:56:59;;;;;;;;;24.60;18.60;;;;;;;;2006349;28;3584618;-83
2023/06/14 00:58:13;;;;;;;;;21.86;19.86;;;;;;;;1999312;28;3582872;-82
2023/06/14 00:59:25;;;;;;;;;20.00;19.00;;;;;;;;1954474;28;3561695;-83
2023/06/14 01:00:36;;;;;;;;;24.20;20.20;;;;;;;;1978919;28;3577314;-83
2023/06/14 01:01:49;;;;;;;;;23.43;19.71;;;;;;;;1997662;28;3586647;-83
2023/06/14 01:03:03;;;;;;;;;22.29;20.14;;;;;;;;1971546;28;3579434;-82
2023/06/14 01:04:13;;;;;;;;;22.00;19.50;;;;;;;;1961443;28;2843300;-82
2023/06/14 01:05:24;;;;;;;;;18.80;18.80;;;;;;;;1967069;28;2841974;-82
2023/06/14 01:06:53;;;;;;;;;20.00;17.80;;;;;;;;2000247;28;3559608;-82
2023/06/14 01:08:13;;;;;;;;;19.00;17.50;;;;;;;;1986001;28;2823660;-82
2023/06/14 01:09:32;;;;;;;;;18.33;17.00;;;;;;;;1960260;28;3566919;-83
2023/06/14 01:11:04;;;;;;;;;21.00;17.33;;;;;;;;1959347;28;3575216;-82
2023/06/14 01:12:24;;;;;;;;;21.33;19.33;;;;;;;;1958439;28;3579909;-83
2023/06/14 01:13:37;;;;;;;;;15.00;15.00;;;;;;;;1954018;28;3540835;-83
2023/06/14 01:14:48;;;;;;;;;18.50;16.00;;;;;;;;1984683;28;2827438;-81
2023/06/14 01:15:59;;;;;;;;;17.60;15.60;;;;;;;;1974637;28;3548174;-80
2023/06/14 01:17:16;;;;;;;;;20.40;19.00;;;;;;;;2008257;28;3579372;-80
2023/06/14 01:18:29;;;;;;;;;15.67;15.33;;;;;;;;1960078;28;3554416;-80
2023/06/14 01:19:42;;;;;;;;;21.50;18.00;;;;;;;;1959984;28;2841957;-80
2023/06/14 01:20:54;;;;;;;;;20.00;17.67;;;;;;;;1955352;28;3571058;-80
2023/06/14 01:22:05;;;;;;;;;19.00;18.00;;;;;;;;1962095;28;2831532;-80
2023/06/14 01:23:17;;;;;;;;;20.67;20.00;;;;;;;;1975156;28;3577300;-80
2023/06/14 01:24:31;;;;;;;;;23.40;17.80;;;;;;;;1977982;28;3576271;-80
2023/06/14 01:25:44;;;;;;;;;18.67;16.00;;;;;;;;1962749;28;2835639;-80
2023/06/14 01:26:55;;;;;;;;;22.67;19.33;;;;;;;;1978267;28;3579702;-79
2023/06/14 01:28:11;;;;;;;;;18.80;17.60;;;;;;;;1969745;28;3573137;-79
2023/06/14 01:29:23;;;;;;;;;20.67;19.33;;;;;;;;1960107;28;3561644;-79
2023/06/14 01:30:34;;;;;;;;;20.00;18.00;;;;;;;;1962670;28;2840144;-80
2023/06/14 01:31:47;;;;;;;;;23.40;19.40;;;;;;;;1967753;28;3573129;-80
2023/06/14 01:32:58;;;;;;;;;15.67;13.67;;;;;;;;1956354;28;3541932;-80
2023/06/14 01:34:10;;;;;;;;;23.00;19.00;;;;;;;;1986964;28;3575264;-80
2023/06/14 01:35:21;;;;;;;;;20.80;18.60;;;;;;;;1990955;28;2839909;-80
2023/06/14 01:36:34;;;;;;;;;26.33;21.00;;;;;;;;1994618;28;3568308;-80
2023/06/14 01:37:46;;;;;;;;;19.00;17.00;;;;;;;;1963713;28;2837722;-79
2023/06/14 01:38:58;;;;;;;;;24.33;21.00;;;;;;;;1964491;28;2840935;-79
2023/06/14 01:40:10;;;;;;;;;24.33;21.67;;;;;;;;1985904;28;3586643;-79
2023/06/14 01:41:22;;;;;;;;;25.00;20.00;;;;;;;;1956137;28;3593974;-79
2023/06/14 01:42:35;;;;;;;;;23.00;22.00;;;;;;;;1961584;28;3578368;-79
2023/06/14 01:43:48;;;;;;;;;20.67;18.33;;;;;;;;1961337;28;3565891;-79
2023/06/14 01:45:00;;;;;;;;;27.00;23.67;;;;;;;;1960066;28;3583662;-80
2023/06/14 01:46:13;;;;;;;;;39.33;32.67;;;;;;;;1972601;28;3576279;-79
2023/06/14 01:47:23;;;;;;;;;19.00;18.50;;;;;;;;1963287;28;2833587;-79
2023/06/14 01:48:35;;;;;;;;;30.67;26.00;;;;;;;;1974564;28;3596017;-84
2023/06/14 01:49:47;;;;;;;;;22.00;18.40;;;;;;;;1982171;28;3572096;-85
2023/06/14 01:50:59;;;;;;;;;28.80;26.00;;;;;;;;2010609;28;3590828;-87
2023/06/14 01:52:11;;;;;;;;;26.60;25.80;;;;;;;;1987355;28;3585661;-87
2023/06/14 01:53:23;;;;;;;;;22.00;18.00;;;;;;;;1972715;28;3566887;-87
2023/06/14 01:54:37;;;;;;;;;25.60;22.60;;;;;;;;2002138;28;3567901;-88
2023/06/14 01:55:48;;;;;;;;;24.67;22.00;;;;;;;;1952742;28;3579379;-86
2023/06/14 01:57:02;;;;;;;;;27.38;23.88;;;;;;;;1974409;28;3598153;-87
2023/06/14 01:58:15;;;;;;;;;20.67;18.67;;;;;;;;1975481;28;3567945;-85
2023/06/14 01:59:27;;;;;;;;;25.00;22.00;;;;;;;;1950922;28;3585653;-86
2023/06/14 02:00:39;;;;;;;;;19.40;17.60;;;;;;;;1975877;28;3568975;-86
2023/06/14 02:01:49;;;;;;;;;23.20;21.00;;;;;;;;1962355;28;2845125;-86
2023/06/14 02:03:00;;;;;;;;;22.00;17.50;;;;;;;;1977386;28;2506498;-86
2023/06/14 02:04:12;;;;;;;;;24.67;21.00;;;;;;;;1968964;28;3574541;-86
2023/06/14 02:05:24;;;;;;;;;19.20;17.00;;;;;;;;1964740;28;2823531;-86
2023/06/14 02:06:34;;;;;;;;;29.00;20.50;;;;;;;;1972779;28;2506509;-87
2023/06/14 02:07:47;;;;;;;;;26.43;23.43;;;;;;;;1975198;28;3586738;-84
2023/06/14 02:08:58;;;;;;;;;20.40;19.40;;;;;;;;1956343;28;2844540;-82
2023/06/14 02:10:09;;;;;;;;;21.60;21.00;;;;;;;;1981266;28;2843065;-87
2023/06/14 02:11:20;;;;;;;;;23.00;21.00;;;;;;;;1970837;28;3570044;-86
2023/06/14 02:12:32;;;;;;;;;19.80;18.00;;;;;;;;1972799;28;3577279;-86
2023/06/14 02:13:44;;;;;;;;;21.20;21.20;;;;;;;;1972810;28;3580409;-87
2023/06/14 02:14:56;;;;;;;;;21.33;20.33;;;;;;;;1952188;28;3582524;-85
2023/06/14 02:16:09;;;;;;;;;25.14;21.14;;;;;;;;1962475;28;3583526;-78
2023/06/14 02:17:21;;;;;;;;;25.67;19.33;;;;;;;;1962572;28;3576247;-77
2023/06/14 02:18:33;;;;;;;;;21.33;20.33;;;;;;;;1971194;28;3571058;-85
2023/06/14 02:19:44;;;;;;;;;20.40;19.60;;;;;;;;1971798;28;3571026;-81
2023/06/14 02:20:56;;;;;;;;;23.80;20.60;;;;;;;;1970048;28;3568963;-81
2023/06/14 02:22:07;;;;;;;;;22.80;20.60;;;;;;;;1959096;28;2840929;-82
2023/06/14 02:23:18;;;;;;;;;23.60;21.40;;;;;;;;1978786;28;2843325;-82
2023/06/14 02:24:30;;;;;;;;;24.80;21.60;;;;;;;;1975234;28;3577300;-81
2023/06/14 02:25:41;;;;;;;;;25.40;21.20;;;;;;;;1962711;28;2842969;-82
2023/06/14 02:26:52;;;;;;;;;22.00;21.00;;;;;;;;1977675;28;2840854;-81
2023/06/14 02:28:03;;;;;;;;;23.33;20.67;;;;;;;;1974968;28;3573158;-80
2023/06/14 02:29:16;;;;;;;;;23.00;19.29;;;;;;;;1975975;28;3582568;-81
2023/06/14 02:30:28;;;;;;;;;19.00;18.20;;;;;;;;1953481;28;2832596;-81
2023/06/14 02:31:40;;;;;;;;;20.33;17.33;;;;;;;;1962035;28;3566856;-81
2023/06/14 02:32:51;;;;;;;;;21.80;19.40;;;;;;;;1973145;28;2837793;-81
2023/06/14 02:34:02;;;;;;;;;21.00;19.00;;;;;;;;1994156;28;3576586;-79
2023/06/14 02:35:15;;;;;;;;;22.14;19.14;;;;;;;;1998411;28;3571058;-80
2023/06/14 02:36:31;;;;;;;;;25.14;21.71;;;;;;;;1973637;28;3583519;-79
2023/06/14 02:37:42;;;;;;;;;20.67;20.00;;;;;;;;1952851;28;3584591;-81
2023/06/14 02:38:54;;;;;;;;;19.40;19.40;;;;;;;;1978958;28;3577275;-80
2023/06/14 02:40:06;;;;;;;;;24.80;21.20;;;;;;;;1954505;28;2845140;-80
2023/06/14 02:41:17;;;;;;;;;20.67;16.67;;;;;;;;1971784;28;3576271;-80
2023/06/14 02:42:28;;;;;;;;;21.20;17.60;;;;;;;;1963355;28;2839973;-80
2023/06/14 02:43:40;;;;;;;;;19.20;18.80;;;;;;;;2002022;28;3570021;-80
2023/06/14 02:44:52;;;;;;;;;24.20;21.20;;;;;;;;2003749;28;3572118;-80
2023/06/14 02:46:03;;;;;;;;;22.00;19.40;;;;;;;;1962258;28;2847229;-80
2023/06/14 02:47:15;;;;;;;;;21.33;19.33;;;;;;;;1975646;28;3573170;-81
2023/06/14 02:48:25;;;;;;;;;20.20;18.20;;;;;;;;1957979;28;2833559;-81
2023/06/14 02:49:37;;;;;;;;;24.20;19.60;;;;;;;;2002354;28;3572076;-84
2023/06/14 02:50:48;;;;;;;;;24.40;21.00;;;;;;;;1984423;28;2846154;-84
2023/06/14 02:52:00;;;;;;;;;22.67;20.00;;;;;;;;1980193;28;3562725;-84
2023/06/14 02:53:12;;;;;;;;;26.00;20.80;;;;;;;;1970029;28;3585657;-82
2023/06/14 02:54:24;;;;;;;;;21.00;20.67;;;;;;;;1954657;28;3573161;-82
2023/06/14 02:55:39;;;;;;;;;26.50;22.00;;;;;;;;1953718;28;2848186;-82
2023/06/14 02:56:50;;;;;;;;;24.50;19.50;;;;;;;;1954615;28;2841951;-83
2023/06/14 02:58:01;;;;;;;;;26.67;22.33;;;;;;;;1950475;28;3583561;-83
2023/06/14 02:59:14;;;;;;;;;20.20;19.00;;;;;;;;1981640;28;3562685;-85
2023/06/14 03:00:26;;;;;;;;;24.67;19.00;;;;;;;;1947490;28;3588830;-83
2023/06/14 03:01:40;;;;;;;;;17.86;16.00;;;;;;;;1971863;28;3562768;-84
2023/06/14 03:02:54;;;;;;;;;21.33;19.33;;;;;;;;1973369;28;3574198;-83
2023/06/14 03:04:05;;;;;;;;;21.33;21.00;;;;;;;;1943851;28;3578357;-83
2023/06/14 03:05:21;;;;;;;;;22.00;19.40;;;;;;;;1977748;28;3566879;-83
2023/06/14 03:06:31;;;;;;;;;13.50;13.50;;;;;;;;1953836;28;2804457;-84
2023/06/14 03:07:44;;;;;;;;;20.40;18.00;;;;;;;;1979524;28;3585617;-83
2023/06/14 03:08:59;;;;;;;;;19.50;18.00;;;;;;;;1955734;28;2838112;-83
2023/06/14 03:10:12;;;;;;;;;22.67;21.67;;;;;;;;1952803;28;2840872;-84
2023/06/14 03:11:23;;;;;;;;;23.00;19.50;;;;;;;;1965816;28;2506532;-83
2023/06/14 03:12:35;;;;;;;;;21.40;20.20;;;;;;;;1975449;28;3570041;-85
2023/06/14 03:13:46;;;;;;;;;24.00;18.67;;;;;;;;1974958;28;3576267;-85
2023/06/14 03:15:01;;;;;;;;;22.40;20.60;;;;;;;;1959190;28;2838311;-85
2023/06/14 03:16:12;;;;;;;;;19.00;17.50;;;;;;;;1977050;28;2829464;-84
2023/06/14 03:17:24;;;;;;;;;17.00;16.00;;;;;;;;1962314;28;3554372;-84
2023/06/14 03:18:36;;;;;;;;;21.00;21.00;;;;;;;;1962375;28;3574191;-81
2023/06/14 03:19:46;;;;;;;;;23.00;23.00;;;;;;;;1953469;28;2840886;-78
2023/06/14 03:21:00;;;;;;;;;23.60;21.20;;;;;;;;1952395;28;2835671;-77
2023/06/14 03:22:11;;;;;;;;;20.00;18.33;;;;;;;;1974828;28;2839821;-75
2023/06/14 03:23:23;;;;;;;;;27.50;21.00;;;;;;;;1977728;28;2856504;-82
2023/06/14 03:24:36;;;;;;;;;22.00;20.00;;;;;;;;1947283;28;3578349;-80
2023/06/14 03:25:46;;;;;;;;;20.00;19.00;;;;;;;;1955474;28;2824248;-80
2023/06/14 03:27:00;;;;;;;;;25.00;20.50;;;;;;;;1967754;28;3589834;-78
2023/06/14 03:28:10;;;;;;;;;22.00;20.50;;;;;;;;1976077;28;2846068;-85
2023/06/14 03:29:21;;;;;;;;;21.60;19.80;;;;;;;;1963774;28;2837754;-83
2023/06/14 03:30:31;;;;;;;;;23.00;19.00;;;;;;;;1970498;28;2506566;-82
2023/06/14 03:32:00;;;;;;;;;23.00;20.20;;;;;;;;1976408;28;3587689;-82
2023/06/14 03:33:10;;;;;;;;;21.00;19.00;;;;;;;;1976079;28;2846135;-82
2023/06/14 03:34:22;;;;;;;;;21.00;19.00;;;;;;;;1966157;28;3568966;-80
2023/06/14 03:35:33;;;;;;;;;19.40;19.40;;;;;;;;1959767;28;2838147;-79
2023/06/14 03:36:44;;;;;;;;;20.00;19.60;;;;;;;;1976638;28;2844195;-83
2023/06/14 03:37:55;;;;;;;;;20.80;19.00;;;;;;;;1976076;28;3572060;-81
2023/06/14 03:39:07;;;;;;;;;25.60;22.80;;;;;;;;1978687;28;3584614;-81
2023/06/14 03:40:21;;;;;;;;;22.86;21.71;;;;;;;;1971772;28;3586659;-81
2023/06/14 03:41:32;;;;;;;;;19.00;17.33;;;;;;;;1946431;28;3566935;-81
2023/06/14 03:42:45;;;;;;;;;24.86;22.00;;;;;;;;1974446;28;3584572;-81
2023/06/14 03:43:56;;;;;;;;;25.20;21.80;;;;;;;;1959619;28;2842394;-81
2023/06/14 03:45:08;;;;;;;;;24.60;18.60;;;;;;;;2004464;28;3586639;-79
2023/06/14 03:46:21;;;;;;;;;22.71;20.00;;;;;;;;1994094;28;3585995;-77
2023/06/14 03:47:35;;;;;;;;;26.13;23.63;;;;;;;;1967884;28;3593997;-77
2023/06/14 03:48:46;;;;;;;;;20.50;18.50;;;;;;;;1976807;28;2831529;-76
2023/06/14 03:49:57;;;;;;;;;20.33;18.67;;;;;;;;1951149;28;3573599;-77
2023/06/14 03:51:09;;;;;;;;;20.80;19.80;;;;;;;;1970806;28;3572088;-77
2023/06/14 03:52:22;;;;;;;;;22.00;20.20;;;;;;;;1960249;28;2839903;-76
2023/06/14 03:53:35;;;;;;;;;19.33;18.33;;;;;;;;1976734;28;2838803;-76
2023/06/14 03:54:46;;;;;;;;;22.00;21.67;;;;;;;;1970052;28;3566859;-76
2023/06/14 03:55:59;;;;;;;;;20.60;19.80;;;;;;;;1980899;28;3571027;-76
2023/06/14 03:57:10;;;;;;;;;23.50;20.00;;;;;;;;1978412;28;2838791;-76
2023/06/14 03:58:22;;;;;;;;;24.60;23.60;;;;;;;;1977949;28;3583631;-76
2023/06/14 03:59:33;;;;;;;;;24.80;22.80;;;;;;;;1958251;28;2840959;-76
2023/06/14 04:00:46;;;;;;;;;21.86;21.00;;;;;;;;1996022;28;3587771;-76
2023/06/14 04:01:58;;;;;;;;;20.33;18.67;;;;;;;;1966263;28;3577284;-76
2023/06/14 04:03:10;;;;;;;;;19.60;17.40;;;;;;;;1976039;28;3566891;-78
2023/06/14 04:04:28;;;;;;;;;19.80;18.80;;;;;;;;1994155;28;3576246;-77
2023/06/14 04:05:42;;;;;;;;;22.33;22.33;;;;;;;;1951756;28;3583573;-76
2023/06/14 04:06:54;;;;;;;;;27.00;22.33;;;;;;;;1945343;28;3586691;-77
2023/06/14 04:08:08;;;;;;;;;24.00;20.00;;;;;;;;1966382;28;3581446;-77
2023/06/14 04:09:20;;;;;;;;;20.67;20.00;;;;;;;;1951528;28;3575214;-77
2023/06/14 04:10:30;;;;;;;;;25.00;18.60;;;;;;;;1959284;28;2832554;-77
2023/06/14 04:11:42;;;;;;;;;21.00;18.00;;;;;;;;1974584;28;3568979;-78
2023/06/14 04:12:53;;;;;;;;;24.60;21.20;;;;;;;;1961266;28;2837825;-78
2023/06/14 04:14:05;;;;;;;;;18.80;18.60;;;;;;;;1980175;28;3574148;-77
2023/06/14 04:15:15;;;;;;;;;21.50;19.50;;;;;;;;1977746;28;2843964;-77
2023/06/14 04:16:28;;;;;;;;;24.00;18.71;;;;;;;;1976340;28;3570021;-77
2023/06/14 04:17:40;;;;;;;;;27.40;20.20;;;;;;;;1974525;28;3596029;-81
2023/06/14 04:18:52;;;;;;;;;25.00;23.20;;;;;;;;1954854;28;2840851;-82
2023/06/14 04:20:05;;;;;;;;;23.67;18.00;;;;;;;;1974930;28;3588849;-82
2023/06/14 04:21:16;;;;;;;;;20.33;19.00;;;;;;;;1946417;28;3583515;-82
2023/06/14 04:22:28;;;;;;;;;22.60;22.60;;;;;;;;1978147;28;3579729;-82
2023/06/14 04:23:43;;;;;;;;;22.40;22.40;;;;;;;;1977631;28;3579371;-82
2023/06/14 04:24:56;;;;;;;;;19.33;19.33;;;;;;;;1952253;28;2833563;-82
2023/06/14 04:26:07;;;;;;;;;22.67;20.00;;;;;;;;1976321;28;3574147;-82
2023/06/14 04:27:21;;;;;;;;;21.60;17.40;;;;;;;;1978662;28;3567902;-81
2023/06/14 04:28:37;;;;;;;;;22.67;18.67;;;;;;;;1976207;28;3581828;-81
2023/06/14 04:29:53;;;;;;;;;25.33;20.33;;;;;;;;1951347;28;3587708;-83
2023/06/14 04:31:04;;;;;;;;;23.33;20.67;;;;;;;;1947391;28;3578389;-86
2023/06/14 04:32:15;;;;;;;;;17.60;17.40;;;;;;;;1957483;28;2831130;-83
2023/06/14 04:33:26;;;;;;;;;19.67;18.00;;;;;;;;1981489;28;3577836;-82
2023/06/14 04:34:39;;;;;;;;;24.14;18.86;;;;;;;;1976105;28;3584571;-83
2023/06/14 04:35:53;;;;;;;;;24.00;21.80;;;;;;;;1972071;28;3580417;-82
2023/06/14 04:37:05;;;;;;;;;18.00;17.00;;;;;;;;1972833;28;2824242;-82
2023/06/14 04:38:16;;;;;;;;;20.50;18.00;;;;;;;;1972798;28;2835639;-82
2023/06/14 04:39:27;;;;;;;;;21.20;20.40;;;;;;;;1976377;28;3574163;-82
2023/06/14 04:40:42;;;;;;;;;21.20;19.00;;;;;;;;1962009;28;2840915;-82
2023/06/14 04:41:56;;;;;;;;;22.00;20.00;;;;;;;;1975987;28;3575276;-81
2023/06/14 04:43:17;;;;;;;;;21.33;19.00;;;;;;;;1952645;28;3581473;-82
2023/06/14 04:44:31;;;;;;;;;22.33;21.67;;;;;;;;1952381;28;3570025;-82
2023/06/14 04:45:44;;;;;;;;;17.00;17.00;;;;;;;;1955116;28;2820103;-80
2023/06/14 04:46:56;;;;;;;;;23.00;19.50;;;;;;;;1970750;28;2840880;-81
2023/06/14 04:48:07;;;;;;;;;25.00;20.33;;;;;;;;1953829;28;3577324;-80
2023/06/14 04:49:19;;;;;;;;;19.00;17.80;;;;;;;;1977638;28;3572080;-82
2023/06/14 04:50:32;;;;;;;;;23.20;19.80;;;;;;;;1980731;28;3587705;-82
2023/06/14 04:51:43;;;;;;;;;24.00;18.50;;;;;;;;1956004;28;2848178;-79
2023/06/14 04:52:55;;;;;;;;;20.33;18.67;;;;;;;;1955266;28;3577327;-78
2023/06/14 04:54:10;;;;;;;;;20.40;20.40;;;;;;;;1986515;28;3591869;-78
2023/06/14 04:55:21;;;;;;;;;23.00;19.33;;;;;;;;1962732;28;2842970;-80
2023/06/14 04:56:32;;;;;;;;;20.33;19.00;;;;;;;;1983124;28;3575265;-75
2023/06/14 04:57:44;;;;;;;;;19.60;19.40;;;;;;;;1981826;28;3558598;-75
2023/06/14 04:58:56;;;;;;;;;23.80;20.60;;;;;;;;1998609;28;3576231;-75
2023/06/14 05:00:10;;;;;;;;;20.40;19.60;;;;;;;;1976368;28;3574148;-76
2023/06/14 05:01:23;;;;;;;;;26.33;19.67;;;;;;;;1947954;28;2842955;-77
2023/06/14 05:02:35;;;;;;;;;22.00;19.33;;;;;;;;1973063;28;3581490;-76
2023/06/14 05:03:49;;;;;;;;;22.33;19.00;;;;;;;;1960564;28;3578352;-77
2023/06/14 05:05:01;;;;;;;;;21.33;20.67;;;;;;;;1951342;28;3579470;-76
2023/06/14 05:06:12;;;;;;;;;18.00;17.00;;;;;;;;1958687;28;3565938;-76
2023/06/14 05:07:25;;;;;;;;;25.60;22.00;;;;;;;;2008836;28;3582560;-76
2023/06/14 05:08:36;;;;;;;;;25.00;20.80;;;;;;;;1959203;28;3579351;-76
2023/06/14 05:09:47;;;;;;;;;27.60;22.20;;;;;;;;1951390;28;2845109;-76
2023/06/14 05:10:59;;;;;;;;;29.60;21.20;;;;;;;;2009944;28;3604405;-75
2023/06/14 05:12:10;;;;;;;;;23.60;19.60;;;;;;;;1993981;28;2839886;-75
2023/06/14 05:13:22;;;;;;;;;21.40;20.80;;;;;;;;1990669;28;3576250;-75
2023/06/14 05:14:33;;;;;;;;;24.00;23.00;;;;;;;;1979002;28;2846095;-75
2023/06/14 05:15:45;;;;;;;;;25.00;21.67;;;;;;;;1962824;28;3572111;-75
2023/06/14 05:16:57;;;;;;;;;24.00;21.60;;;;;;;;1971595;28;2845144;-75
2023/06/14 05:18:09;;;;;;;;;17.00;14.33;;;;;;;;1976721;28;3540819;-75
2023/06/14 05:19:20;;;;;;;;;20.67;20.67;;;;;;;;1951696;28;3575330;-75
2023/06/14 05:20:32;;;;;;;;;21.20;20.60;;;;;;;;1982665;28;3572076;-75
2023/06/14 05:21:44;;;;;;;;;20.80;17.80;;;;;;;;1977163;28;3571545;-75
2023/06/14 05:22:56;;;;;;;;;23.20;19.20;;;;;;;;1984715;28;3573161;-75
2023/06/14 05:24:09;;;;;;;;;26.60;22.80;;;;;;;;2002752;28;3572102;-75
2023/06/14 05:25:21;;;;;;;;;22.67;18.33;;;;;;;;1959526;28;3567976;-75
2023/06/14 05:26:33;;;;;;;;;18.67;17.33;;;;;;;;1961628;28;3568001;-75
2023/06/14 05:27:44;;;;;;;;;22.33;18.67;;;;;;;;1959414;28;3576297;-75
2023/06/14 05:28:56;;;;;;;;;22.80;19.20;;;;;;;;1968091;28;2838791;-75
2023/06/14 05:30:08;;;;;;;;;19.00;18.00;;;;;;;;1979213;28;3573181;-75
2023/06/14 05:31:19;;;;;;;;;24.33;22.00;;;;;;;;1967534;28;3573213;-75
2023/06/14 05:32:31;;;;;;;;;18.67;16.33;;;;;;;;1974935;28;3561731;-75
2023/06/14 05:33:43;;;;;;;;;21.00;18.60;;;;;;;;1977825;28;3569993;-75
2023/06/14 05:34:54;;;;;;;;;22.40;21.00;;;;;;;;1962063;28;2846211;-76
2023/06/14 05:36:05;;;;;;;;;25.00;21.33;;;;;;;;1982040;28;3579394;-75
2023/06/14 05:37:18;;;;;;;;;25.57;22.00;;;;;;;;1980758;28;3586733;-75
2023/06/14 05:38:29;;;;;;;;;20.60;19.80;;;;;;;;1968425;28;2843076;-75
2023/06/14 05:39:40;;;;;;;;;21.80;18.40;;;;;;;;1982968;28;3567929;-75
2023/06/14 05:40:53;;;;;;;;;21.80;17.40;;;;;;;;1979454;28;3577344;-76
2023/06/14 05:42:06;;;;;;;;;26.33;21.00;;;;;;;;1957779;28;3571090;-76
2023/06/14 05:43:16;;;;;;;;;20.50;20.50;;;;;;;;1954206;28;2830482;-76
2023/06/14 05:44:28;;;;;;;;;21.40;19.60;;;;;;;;1966628;28;3574174;-76
2023/06/14 05:45:40;;;;;;;;;31.00;27.80;;;;;;;;2000101;28;3598161;-75
2023/06/14 05:46:52;;;;;;;;;25.40;22.80;;;;;;;;1988246;28;3574188;-76
2023/06/14 05:48:03;;;;;;;;;23.40;19.40;;;;;;;;1956801;28;2836684;-76
2023/06/14 05:49:13;;;;;;;;;17.00;17.00;;;;;;;;1973747;28;2832518;-75
2023/06/14 05:50:25;;;;;;;;;20.20;19.40;;;;;;;;1984020;28;3572107;-75
2023/06/14 05:51:37;;;;;;;;;17.80;15.80;;;;;;;;2009710;28;3556448;-75
2023/06/14 05:52:48;;;;;;;;;22.00;17.60;;;;;;;;1985947;28;2835683;-75
2023/06/14 05:53:59;;;;;;;;;18.20;16.20;;;;;;;;1982773;28;3562016;-76
2023/06/14 05:55:11;;;;;;;;;15.00;15.00;;;;;;;;1994538;28;2808589;-75
2023/06/14 05:56:22;;;;;;;;;16.50;14.00;;;;;;;;1956228;28;2809140;-75
2023/06/14 05:57:34;;;;;;;;;24.60;17.80;;;;;;;;2001818;28;3596073;-75
2023/06/14 05:58:46;;;;;;;;;20.80;16.40;;;;;;;;2002074;28;3570005;-76
2023/06/14 05:59:58;;;;;;;;;18.20;16.80;;;;;;;;1965705;28;3558641;-75
2023/06/14 06:01:10;;;;;;;;;17.00;16.67;;;;;;;;1984949;28;3568295;-75
2023/06/14 06:02:21;;;;;;;;;18.60;17.80;;;;;;;;1970187;28;3568962;-77
2023/06/14 06:03:32;;;;;;;;;17.40;16.80;;;;;;;;1990756;28;2835779;-77
2023/06/14 06:04:44;;;;;;;;;20.00;18.80;;;;;;;;1999306;28;3571038;-76
2023/06/14 06:05:56;;;;;;;;;19.60;16.60;;;;;;;;1996731;28;3571015;-77
2023/06/14 06:07:08;;;;;;;;;16.80;16.40;;;;;;;;1975036;28;3553380;-77
2023/06/14 06:08:20;;;;;;;;;23.80;20.80;;;;;;;;1996346;28;3579352;-77
2023/06/14 06:09:32;;;;;;;;;18.00;17.20;;;;;;;;1974450;28;3567981;-77
2023/06/14 06:10:44;;;;;;;;;15.80;15.80;;;;;;;;1975074;28;3548183;-77
2023/06/14 06:11:56;;;;;;;;;18.60;17.40;;;;;;;;1999263;28;3563738;-77
2023/06/14 06:13:08;;;;;;;;;20.40;17.40;;;;;;;;1999916;28;3568936;-77
2023/06/14 06:14:20;;;;;;;;;19.86;18.00;;;;;;;;1974081;28;3579387;-77
2023/06/14 06:15:31;;;;;;;;;21.40;18.20;;;;;;;;1983673;28;2836771;-77
2023/06/14 06:16:43;;;;;;;;;16.67;16.33;;;;;;;;1976402;28;3553810;-77
2023/06/14 06:17:55;;;;;;;;;18.20;17.00;;;;;;;;1978953;28;3573147;-77
2023/06/14 06:19:07;;;;;;;;;19.00;16.80;;;;;;;;1963405;28;3568974;-77
2023/06/14 06:20:18;;;;;;;;;15.20;15.20;;;;;;;;2012743;28;3526264;-76
2023/06/14 06:21:31;;;;;;;;;17.80;14.60;;;;;;;;2010958;28;3532487;-76
2023/06/14 06:22:42;;;;;;;;;20.00;17.00;;;;;;;;1986039;28;2830446;-77
2023/06/14 06:23:55;;;;;;;;;21.57;19.29;;;;;;;;1982903;28;3565861;-76
2023/06/14 06:25:07;;;;;;;;;23.80;19.20;;;;;;;;1973654;28;3562704;-76
2023/06/14 06:26:18;;;;;;;;;17.67;14.33;;;;;;;;1993373;28;3550229;-76
2023/06/14 06:27:31;;;;;;;;;19.86;18.86;;;;;;;;2007021;28;3580405;-76
2023/06/14 06:28:43;;;;;;;;;16.00;15.67;;;;;;;;1978974;28;3560619;-76
2023/06/14 06:29:56;;;;;;;;;19.20;16.20;;;;;;;;2013036;28;3557549;-76
2023/06/14 06:31:06;;;;;;;;;19.00;17.00;;;;;;;;1975881;28;2830915;-76
2023/06/14 06:32:18;;;;;;;;;19.60;17.00;;;;;;;;1974627;28;3552352;-76
2023/06/14 06:33:31;;;;;;;;;19.57;14.57;;;;;;;;2005718;28;3560665;-76
2023/06/14 06:34:42;;;;;;;;;19.60;18.00;;;;;;;;1984322;28;2841993;-76
2023/06/14 06:35:54;;;;;;;;;21.29;17.57;;;;;;;;2001268;28;3566888;-76
2023/06/14 06:37:07;;;;;;;;;17.43;17.14;;;;;;;;1980502;28;3575255;-76
2023/06/14 06:38:18;;;;;;;;;23.80;20.40;;;;;;;;1977053;28;2845073;-76
2023/06/14 06:39:29;;;;;;;;;20.00;17.00;;;;;;;;1963044;28;2827314;-76
2023/06/14 06:40:41;;;;;;;;;16.60;16.60;;;;;;;;1975468;28;3568970;-76
2023/06/14 06:41:52;;;;;;;;;19.80;17.80;;;;;;;;2003515;28;3571054;-76
2023/06/14 06:43:03;;;;;;;;;20.40;18.00;;;;;;;;1965863;28;2842126;-76
2023/06/14 06:44:15;;;;;;;;;17.67;16.00;;;;;;;;1978603;28;3557541;-76
2023/06/14 06:45:26;;;;;;;;;17.60;17.20;;;;;;;;1993491;28;2831528;-76
2023/06/14 06:46:40;;;;;;;;;13.60;13.60;;;;;;;;2009626;28;2802255;-76
2023/06/14 06:47:51;;;;;;;;;15.67;15.33;;;;;;;;1979691;28;3546028;-76